Rotterdam — PDGS — position and weather

sailwx.info

Track history (hours):
 
Tides and Currents Weather Stations Pressure Air Temp Water Temp Dewpoint Dewpoint Depression Visibility Wind Speed Wind Dir Waves Ship Positions

Rotterdam

Operator: Holland America Line

Last reported at 2020-Aug-10 00:30 UTC. Time now 2020-Aug-10 02:40 UTC.
Position N 51°45' E 002°35'.

Length 228 m; beam 29 m.

Type: Ship. MMSI: 24616700.

Date/timePositionNaut miles runAvg speedWind from/ knotsBaromVisibWave heightAir tempDewpointWater temp
2020-Aug-10 00:30N 51°45' E 002°35'1514.5
2020-Aug-09 23:31N 51°34' E 002°20'4512.7
2020-Aug-09 20:00N 50°60' E 001°35'2013.6
2020-Aug-09 18:30N 50°41' E 001°20'2914.4
2020-Aug-09 16:31N 50°27' E 000°41'2214.5
2020-Aug-09 15:00N 50°19' E 000°09'3815.0
2020-Aug-09 12:31N 50°10' W 000°48'2919.5
2020-Aug-09 11:00N 50°03' W 001°32'2919.2
2020-Aug-09 09:30N 49°56' W 002°15'3517.3
2020-Aug-09 07:28N 49°44' W 003°07'816.4
2020-Aug-09 07:00N 49°41' W 003°18'2516.5
2020-Aug-09 05:30N 49°29' W 003°52'1716.4
2020-Aug-09 04:29N 49°20' W 004°13'7515.1
2020-Aug-08 23:30N 48°36' W 005°46'1515.1
2020-Aug-08 22:31N 48°23' W 005°56'1515.4
2020-Aug-08 21:30N 48°08' W 006°04'6516.1
2020-Aug-08 17:30N 47°10' W 006°45'5016.5
2020-Aug-08 14:30N 46°26' W 007°20'45616.3
2020-Aug-07 10:30N 39°04' W 009°52'816.8
2020-Aug-07 10:00N 38°55' W 009°52'5716.3
2020-Aug-07 06:31N 37°59' W 009°40'2416.1
2020-Aug-07 05:01N 37°36' W 009°33'816.2
2020-Aug-07 04:30N 37°28' W 009°30'816.0
2020-Aug-07 04:00N 37°20' W 009°26'815.9
2020-Aug-07 03:30N 37°13' W 009°24'3614.5
2020-Aug-07 01:00N 36°42' W 009°00'2416.4
2020-Aug-06 23:31N 36°34' W 008°31'6316.8
2020-Aug-06 19:44N 36°14' W 007°17'9615.5
2020-Aug-06 13:30N 36°06' W 005°18'11815.8
2020-Aug-06 06:01N 36°23' W 002°52'917.4
2020-Aug-06 05:31N 36°24' W 002°41'1817.7
2020-Aug-06 04:30N 36°25' W 002°19'917.0
2020-Aug-06 04:00N 36°27' W 002°09'4017.3
2020-Aug-06 01:40N 36°34' W 001°19'317.4
2020-Aug-06 01:30N 36°34' W 001°16'5417.8
2020-Aug-05 22:29N 36°43' W 000°10'14817.4
2020-Aug-05 13:59N 37°06' E 002°53'52415.9
2020-Aug-04 05:00N 36°43' E 013°48'1616.3
2020-Aug-04 04:00N 36°37' E 014°06'1616.0
2020-Aug-04 03:01N 36°31' E 014°25'28516.6
2020-Aug-03 09:52N 35°20' E 020°05'56617.2
2020-Aug-02 01:00N 34°30' E 031°33'4216.6
2020-Aug-01 22:27N 34°31' E 032°25'41 6.3
2020-Aug-01 16:00N 34°42' E 033°13'0 0.0
2020-Aug-01 14:00N 34°42' E 033°13'0 0.0
2020-Aug-01 11:21N 34°42' E 033°13'0 0.1
2020-Aug-01 09:30N 34°42' E 033°12'0 0.0
2020-Aug-01 05:30N 34°42' E 033°12'0 0.0
2020-Aug-01 03:00N 34°42' E 033°12'0 0.0
2020-Aug-01 02:30N 34°42' E 033°12'0 0.0
2020-Aug-01 00:30N 34°42' E 033°12'0 0.0
2020-Aug-01 00:00N 34°42' E 033°12'0 0.0
2020-Jul-31 21:30N 34°42' E 033°13'0 0.0
2020-Jul-31 18:00N 34°42' E 033°13'0 0.0
2020-Jul-31 15:30N 34°42' E 033°13'0 0.0
2020-Jul-31 12:00N 34°42' E 033°13'0 0.1
2020-Jul-31 10:00N 34°42' E 033°12'0 0.0
2020-Jul-31 06:30N 34°42' E 033°12'0 0.0
2020-Jul-31 06:00N 34°42' E 033°12'0 0.0
2020-Jul-31 05:00N 34°42' E 033°12'0 0.0
2020-Jul-31 04:00N 34°42' E 033°12'0 0.0
2020-Jul-31 01:00N 34°42' E 033°12'  
Track history (hours):
 
Tides and Currents Weather Stations Pressure Air Temp Water Temp Dewpoint Dewpoint Depression Visibility Wind Speed Wind Dir Waves Ship Positions

Rotterdam

Operator: Holland America Line

Last reported at 2020-Aug-10 00:30 UTC. Time now 2020-Aug-10 02:40 UTC.
Position N 51°45' E 002°35'.

Length 228 m; beam 29 m.

Type: Ship. MMSI: 24616700.

Date/timePositionNaut miles runAvg speedWind from/ knotsBaromVisibWave heightAir tempDewpointWater temp
2020-Aug-10 00:30N 51°45' E 002°35'1514.5
2020-Aug-09 23:31N 51°34' E 002°20'4512.7
2020-Aug-09 20:00N 50°60' E 001°35'2013.6
2020-Aug-09 18:30N 50°41' E 001°20'2914.4
2020-Aug-09 16:31N 50°27' E 000°41'2214.5
2020-Aug-09 15:00N 50°19' E 000°09'3815.0
2020-Aug-09 12:31N 50°10' W 000°48'2919.5
2020-Aug-09 11:00N 50°03' W 001°32'2919.2
2020-Aug-09 09:30N 49°56' W 002°15'3517.3
2020-Aug-09 07:28N 49°44' W 003°07'816.4
2020-Aug-09 07:00N 49°41' W 003°18'2516.5
2020-Aug-09 05:30N 49°29' W 003°52'1716.4
2020-Aug-09 04:29N 49°20' W 004°13'7515.1
2020-Aug-08 23:30N 48°36' W 005°46'1515.1
2020-Aug-08 22:31N 48°23' W 005°56'1515.4
2020-Aug-08 21:30N 48°08' W 006°04'6516.1
2020-Aug-08 17:30N 47°10' W 006°45'5016.5
2020-Aug-08 14:30N 46°26' W 007°20'45616.3
2020-Aug-07 10:30N 39°04' W 009°52'816.8
2020-Aug-07 10:00N 38°55' W 009°52'5716.3
2020-Aug-07 06:31N 37°59' W 009°40'2416.1
2020-Aug-07 05:01N 37°36' W 009°33'816.2
2020-Aug-07 04:30N 37°28' W 009°30'816.0
2020-Aug-07 04:00N 37°20' W 009°26'815.9
2020-Aug-07 03:30N 37°13' W 009°24'3614.5
2020-Aug-07 01:00N 36°42' W 009°00'2416.4
2020-Aug-06 23:31N 36°34' W 008°31'6316.8
2020-Aug-06 19:44N 36°14' W 007°17'9615.5
2020-Aug-06 13:30N 36°06' W 005°18'11815.8
2020-Aug-06 06:01N 36°23' W 002°52'917.4
2020-Aug-06 05:31N 36°24' W 002°41'1817.7
2020-Aug-06 04:30N 36°25' W 002°19'917.0
2020-Aug-06 04:00N 36°27' W 002°09'4017.3
2020-Aug-06 01:40N 36°34' W 001°19'317.4
2020-Aug-06 01:30N 36°34' W 001°16'5417.8
2020-Aug-05 22:29N 36°43' W 000°10'14817.4
2020-Aug-05 13:59N 37°06' E 002°53'52415.9
2020-Aug-04 05:00N 36°43' E 013°48'1616.3
2020-Aug-04 04:00N 36°37' E 014°06'1616.0
2020-Aug-04 03:01N 36°31' E 014°25'28516.6
2020-Aug-03 09:52N 35°20' E 020°05'56617.2
2020-Aug-02 01:00N 34°30' E 031°33'4216.6
2020-Aug-01 22:27N 34°31' E 032°25'41 6.3
2020-Aug-01 16:00N 34°42' E 033°13'0 0.0
2020-Aug-01 14:00N 34°42' E 033°13'0 0.0
2020-Aug-01 11:21N 34°42' E 033°13'0 0.1
2020-Aug-01 09:30N 34°42' E 033°12'0 0.0
2020-Aug-01 05:30N 34°42' E 033°12'0 0.0
2020-Aug-01 03:00N 34°42' E 033°12'0 0.0
2020-Aug-01 02:30N 34°42' E 033°12'0 0.0
2020-Aug-01 00:30N 34°42' E 033°12'0 0.0
2020-Aug-01 00:00N 34°42' E 033°12'0 0.0
2020-Jul-31 21:30N 34°42' E 033°13'0 0.0
2020-Jul-31 18:00N 34°42' E 033°13'0 0.0
2020-Jul-31 15:30N 34°42' E 033°13'0 0.0
2020-Jul-31 12:00N 34°42' E 033°13'0 0.1
2020-Jul-31 10:00N 34°42' E 033°12'0 0.0
2020-Jul-31 06:30N 34°42' E 033°12'0 0.0
2020-Jul-31 06:00N 34°42' E 033°12'0 0.0
2020-Jul-31 05:00N 34°42' E 033°12'0 0.0
2020-Jul-31 04:00N 34°42' E 033°12'0 0.0
2020-Jul-31 01:00N 34°42' E 033°12'  

Dump ship's entire track history